Parkerford, Pennsylvania
Current Conditions -  °F | °C
As of 3:54 AM on Friday 19 Dec 2014 (Local Time) from KPTW Reporting Station
Overcast Overcast  
Wind Chill: -2°   Ceiling: 3000
Heat Index:   Visibility: 10mi
Dew Point: -4°   Wind: 6mph
Humidity: 70%   Direction: 270°W
Pressure: 30.04"   Gusts: NA
Location:  40.2094°N, 75.5919°W
Report Text: KPTW 190854Z AUTO 27005KT 10SM OVC030 01/M04 A3004 RMK AO2 SLP172 T00111039 50004
Loading
Personal Weather Stations






























Interactive Weather Map New forecast layout! Learn more

10-Day Weather Forecast

Advertisements
Track Severe Weather on mobile